createdAt,value
2018-12-22T00:02:43.039Z,8.50
2018-12-22T00:07:45.482Z,8.50
2018-12-22T00:12:47.934Z,8.50
2018-12-22T00:17:50.412Z,8.60
2018-12-22T00:22:52.820Z,8.60
2018-12-22T00:27:55.234Z,8.60
2018-12-22T00:32:57.663Z,8.60
2018-12-22T00:38:00.093Z,8.60
2018-12-22T00:43:02.538Z,8.60
2018-12-22T00:48:05.032Z,8.60
2018-12-22T00:53:07.434Z,8.60
2018-12-22T00:58:09.838Z,8.70
2018-12-22T01:03:12.285Z,8.70
2018-12-22T01:08:14.714Z,8.70
2018-12-22T01:13:17.122Z,8.80
2018-12-22T01:18:19.532Z,8.80
2018-12-22T01:23:21.974Z,8.80
2018-12-22T01:28:24.390Z,8.80
2018-12-22T01:33:26.838Z,8.80
2018-12-22T01:38:29.252Z,8.90
2018-12-22T01:43:31.665Z,8.90
2018-12-22T01:48:34.108Z,8.90
2018-12-22T01:53:36.574Z,8.90
2018-12-22T01:58:39.050Z,8.90
2018-12-22T02:03:41.510Z,8.90
2018-12-22T02:08:43.919Z,8.90
2018-12-22T02:13:46.334Z,8.90
2018-12-22T02:18:48.768Z,8.90
2018-12-22T02:23:52.371Z,8.90
2018-12-22T02:28:56.892Z,8.90
2018-12-22T02:33:59.145Z,9.00
2018-12-22T02:39:01.553Z,9.00
2018-12-22T02:44:04.112Z,9.00
2018-12-22T02:49:06.602Z,9.00
2018-12-22T02:54:09.038Z,9.00
2018-12-22T02:59:11.428Z,9.00
2018-12-22T03:04:13.931Z,9.00
2018-12-22T03:09:16.343Z,9.00
2018-12-22T03:14:18.834Z,9.00
2018-12-22T03:19:21.238Z,9.10
2018-12-22T03:24:23.659Z,9.10
2018-12-22T03:29:26.156Z,9.10
2018-12-22T03:34:28.565Z,9.10
2018-12-22T03:39:30.990Z,9.20
2018-12-22T03:44:33.406Z,9.20
2018-12-22T03:49:35.878Z,9.20
2018-12-22T03:54:38.299Z,9.20
2018-12-22T03:59:40.803Z,9.20
2018-12-22T04:04:43.203Z,9.20
2018-12-22T04:09:45.639Z,9.20
2018-12-22T04:14:48.120Z,9.30
2018-12-22T04:19:50.543Z,9.30
2018-12-22T04:24:54.075Z,9.20
2018-12-22T04:29:56.572Z,9.30
2018-12-22T04:34:59.050Z,9.20
2018-12-22T04:40:01.529Z,9.30
2018-12-22T04:45:04.650Z,9.20
2018-12-22T04:50:07.125Z,9.20
2018-12-22T04:55:09.550Z,9.20
2018-12-22T05:00:11.978Z,9.30
2018-12-22T05:05:14.396Z,9.20
2018-12-22T05:10:16.875Z,9.20
2018-12-22T05:15:19.302Z,9.20
2018-12-22T05:20:21.794Z,9.20
2018-12-22T05:25:24.220Z,9.20
2018-12-22T05:30:26.644Z,9.20
2018-12-22T05:35:29.052Z,9.20
2018-12-22T05:40:31.536Z,9.20
2018-12-22T05:45:34.168Z,9.10
2018-12-22T05:50:36.574Z,9.10
2018-12-22T05:55:38.992Z,9.10
2018-12-22T06:00:41.428Z,9.10
2018-12-22T06:05:43.934Z,9.10
2018-12-22T06:10:46.339Z,9.10
2018-12-22T06:15:48.872Z,9.00
2018-12-22T06:20:51.282Z,9.00
2018-12-22T06:25:53.722Z,9.00
2018-12-22T06:30:56.204Z,9.00
2018-12-22T06:35:58.780Z,9.00
2018-12-22T06:41:01.213Z,9.00
2018-12-22T06:46:03.606Z,8.90
2018-12-22T06:51:06.026Z,8.90
2018-12-22T06:56:08.468Z,8.90
2018-12-22T07:01:10.958Z,8.90
2018-12-22T07:06:13.483Z,8.80
2018-12-22T07:11:15.974Z,8.80
2018-12-22T07:16:18.436Z,8.80
2018-12-22T07:21:20.857Z,8.80
2018-12-22T07:26:23.271Z,8.70
2018-12-22T07:31:25.706Z,8.70
2018-12-22T07:36:28.114Z,8.70
2018-12-22T07:41:30.555Z,8.70
2018-12-22T07:46:33.067Z,8.60
2018-12-22T07:51:35.490Z,8.60
2018-12-22T07:56:37.918Z,8.60
2018-12-22T08:01:40.330Z,8.60
2018-12-22T08:06:42.819Z,8.60
2018-12-22T08:11:45.223Z,8.60
2018-12-22T08:16:47.655Z,8.50
2018-12-22T08:21:50.064Z,8.50
2018-12-22T08:26:52.542Z,8.50
2018-12-22T08:31:54.955Z,8.50
2018-12-22T08:36:57.413Z,8.50
2018-12-22T08:41:59.890Z,8.50
2018-12-22T08:47:02.356Z,8.50
2018-12-22T08:52:04.763Z,8.50
2018-12-22T08:57:07.318Z,8.50
2018-12-22T09:02:09.814Z,8.50
2018-12-22T09:07:12.231Z,8.50
2018-12-22T09:12:17.452Z,8.50
2018-12-22T09:17:20.261Z,8.50
2018-12-22T09:22:22.784Z,8.40
2018-12-22T09:27:25.301Z,8.40
2018-12-22T09:32:27.711Z,8.40
2018-12-22T09:37:30.205Z,8.50
2018-12-22T09:42:32.658Z,8.50
2018-12-22T09:47:36.468Z,8.50
2018-12-22T09:52:39.403Z,8.50
2018-12-22T09:57:41.814Z,8.50
2018-12-22T10:02:44.279Z,8.50
2018-12-22T10:07:46.693Z,8.50
2018-12-22T10:12:49.168Z,8.60
2018-12-22T10:17:51.639Z,8.60
2018-12-22T10:22:54.113Z,8.70
2018-12-22T10:27:56.630Z,8.80
2018-12-22T10:32:59.024Z,8.80
2018-12-22T10:38:01.501Z,8.90
2018-12-22T10:43:04.008Z,8.90
2018-12-22T10:48:06.447Z,9.00
2018-12-22T10:53:08.892Z,9.00
2018-12-22T10:58:11.399Z,9.10
2018-12-22T11:03:13.887Z,9.20
2018-12-22T11:08:16.386Z,9.20
2018-12-22T11:13:18.923Z,9.30
2018-12-22T11:18:21.582Z,9.30
2018-12-22T11:23:24.147Z,9.40
2018-12-22T11:28:26.671Z,9.40
2018-12-22T11:33:29.059Z,9.40
2018-12-22T11:38:31.568Z,9.50
2018-12-22T11:43:34.124Z,9.50
2018-12-22T11:48:37.124Z,9.40
2018-12-22T11:53:39.610Z,9.40
2018-12-22T11:58:42.083Z,9.40
2018-12-22T12:03:44.521Z,9.40
2018-12-22T12:08:46.923Z,9.50
2018-12-22T12:13:49.354Z,9.50
2018-12-22T12:18:55.618Z,9.50
2018-12-22T12:23:58.063Z,9.50
2018-12-22T12:29:00.470Z,9.50
2018-12-22T12:34:02.887Z,9.60
2018-12-22T12:39:05.858Z,9.50
2018-12-22T12:44:08.306Z,9.50
2018-12-22T12:49:10.739Z,9.50
2018-12-22T12:54:13.210Z,9.50
2018-12-22T12:59:15.654Z,9.50
2018-12-22T13:04:18.095Z,9.50
2018-12-22T13:09:20.518Z,9.50
2018-12-22T13:14:23.038Z,9.50
2018-12-22T13:19:25.481Z,9.40
2018-12-22T13:24:27.963Z,9.40
2018-12-22T13:29:30.375Z,9.40
2018-12-22T13:34:32.784Z,9.40
2018-12-22T13:39:35.258Z,9.40
2018-12-22T13:44:37.704Z,9.40
2018-12-22T13:49:40.477Z,9.30
2018-12-22T13:54:42.943Z,9.30
2018-12-22T13:59:45.386Z,9.30
2018-12-22T14:04:47.790Z,9.30
2018-12-22T14:09:50.201Z,9.20
2018-12-22T14:14:52.671Z,9.20
2018-12-22T14:19:55.122Z,9.20
2018-12-22T14:24:57.603Z,9.10
2018-12-22T14:30:00.011Z,9.10
2018-12-22T14:35:02.986Z,9.00
2018-12-22T14:40:08.658Z,9.00
2018-12-22T14:45:13.330Z,9.00
2018-12-22T14:50:15.781Z,8.90
2018-12-22T14:55:18.222Z,8.90
2018-12-22T15:00:20.702Z,8.90
2018-12-22T15:05:23.111Z,8.90
2018-12-22T15:10:25.515Z,8.80
2018-12-22T15:15:27.990Z,8.80
2018-12-22T15:20:32.862Z,8.70
2018-12-22T15:25:35.314Z,8.70
2018-12-22T15:30:37.762Z,8.60
2018-12-22T15:35:40.243Z,8.60
2018-12-22T15:40:42.651Z,8.60
2018-12-22T15:45:45.055Z,8.50
2018-12-22T15:50:47.486Z,8.50
2018-12-22T15:55:49.890Z,8.50
2018-12-22T16:00:52.398Z,8.40
2018-12-22T16:05:54.806Z,8.40
2018-12-22T16:10:57.259Z,8.30
2018-12-22T16:15:59.678Z,8.30
2018-12-22T16:21:02.116Z,8.20
2018-12-22T16:26:04.523Z,8.20
2018-12-22T16:31:06.927Z,8.10
2018-12-22T16:36:09.337Z,8.10
2018-12-22T16:41:11.742Z,8.00
2018-12-22T16:46:14.287Z,8.00
2018-12-22T16:51:16.698Z,7.90
2018-12-22T16:56:19.104Z,7.90
2018-12-22T17:01:25.861Z,7.80
2018-12-22T17:06:28.302Z,7.80
2018-12-22T17:11:30.787Z,7.70
2018-12-22T17:16:33.356Z,7.70
2018-12-22T17:21:35.932Z,7.60
2018-12-22T17:26:38.466Z,7.60
2018-12-22T17:31:40.897Z,7.60
2018-12-22T17:36:43.332Z,7.50
2018-12-22T17:41:45.774Z,7.50
2018-12-22T17:46:48.183Z,7.50
2018-12-22T17:51:50.696Z,7.50
2018-12-22T17:56:53.159Z,7.50
2018-12-22T18:01:55.615Z,7.40
2018-12-22T18:06:58.111Z,7.40
2018-12-22T18:12:00.560Z,7.40
2018-12-22T18:17:03.135Z,7.40
2018-12-22T18:22:05.569Z,7.40
2018-12-22T18:27:08.050Z,7.30
2018-12-22T18:32:10.471Z,7.30
2018-12-22T18:37:12.879Z,7.30
2018-12-22T18:42:15.421Z,7.20
2018-12-22T18:47:17.826Z,7.20
2018-12-22T18:52:20.244Z,7.20
2018-12-22T18:57:22.740Z,7.20
2018-12-22T19:02:25.274Z,7.10
2018-12-22T19:07:27.701Z,7.10
2018-12-22T19:12:30.212Z,7.10
2018-12-22T19:17:32.639Z,7.00
2018-12-22T19:22:35.069Z,7.00
2018-12-22T19:27:37.505Z,7.00
2018-12-22T19:32:39.935Z,7.00
2018-12-22T19:37:42.418Z,7.00
2018-12-22T19:42:44.818Z,7.00
2018-12-22T19:47:47.269Z,6.90
2018-12-22T19:52:49.667Z,6.90
2018-12-22T19:57:52.127Z,6.90
2018-12-22T20:02:54.542Z,6.90
2018-12-22T20:07:56.968Z,6.90
2018-12-22T20:12:59.413Z,6.90
2018-12-22T20:18:01.855Z,6.90
2018-12-22T20:23:04.373Z,6.90
2018-12-22T20:28:06.796Z,6.90
2018-12-22T20:33:09.242Z,6.90
2018-12-22T20:38:11.693Z,6.90
2018-12-22T20:43:14.167Z,6.90
2018-12-22T20:48:16.622Z,6.90
2018-12-22T20:53:19.054Z,6.90
2018-12-22T20:58:21.504Z,6.90
2018-12-22T21:03:30.522Z,7.00
2018-12-22T21:08:33.012Z,7.00
2018-12-22T21:13:35.428Z,7.00
2018-12-22T21:18:37.871Z,7.00
2018-12-22T21:23:40.324Z,7.00
2018-12-22T21:28:42.767Z,7.00
2018-12-22T21:33:45.219Z,7.00
2018-12-22T21:38:47.662Z,7.00
2018-12-22T21:43:50.068Z,7.10
2018-12-22T21:48:52.580Z,7.00
2018-12-22T21:53:56.279Z,7.10
2018-12-22T21:58:59.690Z,7.00
2018-12-22T22:04:02.106Z,7.00
2018-12-22T22:09:05.348Z,7.10
2018-12-22T22:14:07.814Z,7.10
2018-12-22T22:19:10.218Z,7.10
2018-12-22T22:24:12.652Z,7.10
2018-12-22T22:29:15.078Z,7.10
2018-12-22T22:34:17.530Z,7.10
2018-12-22T22:39:19.936Z,7.10
2018-12-22T22:44:22.350Z,7.10
2018-12-22T22:49:24.774Z,7.10
2018-12-22T22:54:27.276Z,7.10
2018-12-22T22:59:29.700Z,7.10
2018-12-22T23:04:32.195Z,7.10
2018-12-22T23:09:34.633Z,7.10
2018-12-22T23:14:37.133Z,7.10
2018-12-22T23:19:39.528Z,7.10
2018-12-22T23:24:42.018Z,7.10
2018-12-22T23:29:44.469Z,7.10
2018-12-22T23:34:46.900Z,7.10
2018-12-22T23:39:49.361Z,7.10
2018-12-22T23:44:51.787Z,7.10
2018-12-22T23:49:54.223Z,7.10
2018-12-22T23:54:56.676Z,7.10
2018-12-22T23:59:59.087Z,7.10
